sensor_id;sensor_type;location;lat;lon;timestamp;pressure;altitude;pressure_sealevel;temperature;humidity
49515;BME280;35415;47.870;16.058;2023-07-13T00:02:21;97155.69;;;19.51;100.00
49515;BME280;35415;47.870;16.058;2023-07-13T00:04:47;97144.31;;;19.49;100.00
49515;BME280;35415;47.870;16.058;2023-07-13T00:07:14;97136.75;;;19.46;100.00
49515;BME280;35415;47.870;16.058;2023-07-13T00:09:42;97140.16;;;19.43;100.00
49515;BME280;35415;47.870;16.058;2023-07-13T00:12:21;97142.88;;;19.43;100.00
49515;BME280;35415;47.870;16.058;2023-07-13T00:14:48;97137.75;;;19.42;100.00
49515;BME280;35415;47.870;16.058;2023-07-13T00:17:15;97139.22;;;19.39;100.00
49515;BME280;35415;47.870;16.058;2023-07-13T00:19:42;97126.69;;;19.38;100.00
49515;BME280;35415;47.870;16.058;2023-07-13T00:22:09;97111.47;;;19.37;100.00
49515;BME280;35415;47.870;16.058;2023-07-13T00:24:35;97115.66;;;19.35;100.00
49515;BME280;35415;47.870;16.058;2023-07-13T00:27:08;97116.31;;;19.32;100.00
49515;BME280;35415;47.870;16.058;2023-07-13T00:29:35;97124.00;;;19.30;100.00
49515;BME280;35415;47.870;16.058;2023-07-13T00:32:03;97120.78;;;19.28;100.00
49515;BME280;35415;47.870;16.058;2023-07-13T00:34:30;97117.59;;;19.26;100.00
49515;BME280;35415;47.870;16.058;2023-07-13T00:36:57;97118.25;;;19.22;100.00
49515;BME280;35415;47.870;16.058;2023-07-13T00:39:24;97124.03;;;19.21;100.00
49515;BME280;35415;47.870;16.058;2023-07-13T00:41:50;97121.19;;;19.17;100.00
49515;BME280;35415;47.870;16.058;2023-07-13T00:44:19;97114.75;;;19.13;100.00
49515;BME280;35415;47.870;16.058;2023-07-13T00:46:46;97112.34;;;19.12;100.00
49515;BME280;35415;47.870;16.058;2023-07-13T00:49:13;97124.72;;;19.09;100.00
49515;BME280;35415;47.870;16.058;2023-07-13T00:51:43;97119.91;;;19.06;100.00
49515;BME280;35415;47.870;16.058;2023-07-13T00:54:11;97112.06;;;19.05;100.00
49515;BME280;35415;47.870;16.058;2023-07-13T00:56:39;97108.88;;;19.03;100.00
49515;BME280;35415;47.870;16.058;2023-07-13T00:59:07;97117.06;;;19.03;100.00
49515;BME280;35415;47.870;16.058;2023-07-13T01:01:36;97108.88;;;19.03;100.00
49515;BME280;35415;47.870;16.058;2023-07-13T01:04:04;97106.47;;;19.01;100.00
49515;BME280;35415;47.870;16.058;2023-07-13T01:06:33;97108.41;;;19.01;100.00
49515;BME280;35415;47.870;16.058;2023-07-13T01:09:00;97084.19;;;18.99;100.00
49515;BME280;35415;47.870;16.058;2023-07-13T01:11:27;97061.09;;;18.97;100.00
49515;BME280;35415;47.870;16.058;2023-07-13T01:13:54;97034.16;;;18.95;100.00
49515;BME280;35415;47.870;16.058;2023-07-13T01:16:22;97009.97;;;18.93;100.00
49515;BME280;35415;47.870;16.058;2023-07-13T01:18:52;96989.63;;;18.91;100.00
49515;BME280;35415;47.870;16.058;2023-07-13T01:21:20;96987.22;;;18.89;100.00
49515;BME280;35415;47.870;16.058;2023-07-13T01:23:47;97003.44;;;18.86;100.00
49515;BME280;35415;47.870;16.058;2023-07-13T01:26:14;97013.41;;;18.82;100.00
49515;BME280;35415;47.870;16.058;2023-07-13T01:28:41;97020.28;;;18.79;100.00
49515;BME280;35415;47.870;16.058;2023-07-13T01:31:08;97016.75;;;18.79;100.00
49515;BME280;35415;47.870;16.058;2023-07-13T01:33:36;97017.88;;;18.78;100.00
49515;BME280;35415;47.870;16.058;2023-07-13T01:36:03;97024.47;;;18.77;100.00
49515;BME280;35415;47.870;16.058;2023-07-13T01:38:31;97018.22;;;18.76;100.00
49515;BME280;35415;47.870;16.058;2023-07-13T01:40:58;97022.53;;;18.77;100.00
49515;BME280;35415;47.870;16.058;2023-07-13T01:43:25;97025.72;;;18.79;100.00
49515;BME280;35415;47.870;16.058;2023-07-13T01:45:51;97023.50;;;18.81;100.00
49515;BME280;35415;47.870;16.058;2023-07-13T01:48:18;97027.03;;;18.82;100.00
49515;BME280;35415;47.870;16.058;2023-07-13T01:50:45;97033.28;;;18.82;100.00
49515;BME280;35415;47.870;16.058;2023-07-13T01:53:12;97028.63;;;18.83;100.00
49515;BME280;35415;47.870;16.058;2023-07-13T01:55:41;97044.19;;;18.82;100.00
49515;BME280;35415;47.870;16.058;2023-07-13T01:58:07;97042.25;;;18.83;100.00
49515;BME280;35415;47.870;16.058;2023-07-13T02:00:34;97043.38;;;18.82;100.00
49515;BME280;35415;47.870;16.058;2023-07-13T02:03:01;97039.84;;;18.81;100.00
49515;BME280;35415;47.870;16.058;2023-07-13T02:05:27;97041.75;;;18.81;100.00
49515;BME280;35415;47.870;16.058;2023-07-13T02:07:54;97057.00;;;18.82;100.00
49515;BME280;35415;47.870;16.058;2023-07-13T02:10:21;97058.09;;;18.81;100.00
49515;BME280;35415;47.870;16.058;2023-07-13T02:12:50;97079.59;;;18.82;100.00
49515;BME280;35415;47.870;16.058;2023-07-13T02:15:17;97086.66;;;18.83;100.00
49515;BME280;35415;47.870;16.058;2023-07-13T02:17:44;97093.69;;;18.84;100.00
49515;BME280;35415;47.870;16.058;2023-07-13T02:20:10;97112.44;;;18.86;100.00
49515;BME280;35415;47.870;16.058;2023-07-13T02:22:37;97111.00;;;18.88;100.00
49515;BME280;35415;47.870;16.058;2023-07-13T02:25:04;97128.94;;;18.89;100.00
49515;BME280;35415;47.870;16.058;2023-07-13T02:27:31;97137.59;;;18.91;100.00
49515;BME280;35415;47.870;16.058;2023-07-13T02:29:59;97155.88;;;18.91;100.00
49515;BME280;35415;47.870;16.058;2023-07-13T02:32:25;97160.53;;;18.90;100.00
49515;BME280;35415;47.870;16.058;2023-07-13T02:34:52;97169.03;;;18.89;100.00
49515;BME280;35415;47.870;16.058;2023-07-13T02:37:19;97188.44;;;18.87;100.00
49515;BME280;35415;47.870;16.058;2023-07-13T02:39:46;97205.59;;;18.88;100.00
49515;BME280;35415;47.870;16.058;2023-07-13T02:42:14;97203.97;;;18.87;100.00
49515;BME280;35415;47.870;16.058;2023-07-13T02:44:40;97208.31;;;18.88;100.00
49515;BME280;35415;47.870;16.058;2023-07-13T02:47:08;97211.03;;;18.88;100.00
49515;BME280;35415;47.870;16.058;2023-07-13T02:49:35;97212.16;;;18.87;100.00
49515;BME280;35415;47.870;16.058;2023-07-13T02:52:02;97220.34;;;18.87;100.00
49515;BME280;35415;47.870;16.058;2023-07-13T02:54:29;97229.31;;;18.87;100.00
49515;BME280;35415;47.870;16.058;2023-07-13T02:56:55;97235.09;;;18.86;100.00
49515;BME280;35415;47.870;16.058;2023-07-13T02:59:22;97238.59;;;18.86;100.00
49515;BME280;35415;47.870;16.058;2023-07-13T03:01:49;97238.59;;;18.86;100.00
49515;BME280;35415;47.870;16.058;2023-07-13T03:04:18;97244.88;;;18.87;100.00
49515;BME280;35415;47.870;16.058;2023-07-13T03:06:45;97246.78;;;18.86;100.00
49515;BME280;35415;47.870;16.058;2023-07-13T03:09:12;97246.78;;;18.86;100.00
49515;BME280;35415;47.870;16.058;2023-07-13T03:11:39;97242.94;;;18.87;100.00
49515;BME280;35415;47.870;16.058;2023-07-13T03:14:06;97245.66;;;18.87;100.00
49515;BME280;35415;47.870;16.058;2023-07-13T03:16:33;97241.81;;;18.88;100.00
49515;BME280;35415;47.870;16.058;2023-07-13T03:19:00;97243.41;;;18.89;100.00
49515;BME280;35415;47.870;16.058;2023-07-13T03:21:28;97253.50;;;18.89;100.00
49515;BME280;35415;47.870;16.058;2023-07-13T03:23:54;97258.97;;;18.89;100.00
49515;BME280;35415;47.870;16.058;2023-07-13T03:26:21;97270.66;;;18.89;100.00
49515;BME280;35415;47.870;16.058;2023-07-13T03:28:48;97267.47;;;18.87;100.00
49515;BME280;35415;47.870;16.058;2023-07-13T03:31:16;97252.25;;;18.86;100.00
49515;BME280;35415;47.870;16.058;2023-07-13T03:33:43;97249.50;;;18.86;100.00
49515;BME280;35415;47.870;16.058;2023-07-13T03:36:13;97249.50;;;18.86;100.00
49515;BME280;35415;47.870;16.058;2023-07-13T03:38:42;97241.34;;;18.86;100.00
49515;BME280;35415;47.870;16.058;2023-07-13T03:41:13;97239.41;;;18.87;100.00
49515;BME280;35415;47.870;16.058;2023-07-13T03:43:39;97241.00;;;18.88;100.00
49515;BME280;35415;47.870;16.058;2023-07-13T03:46:06;97227.06;;;18.89;100.00
49515;BME280;35415;47.870;16.058;2023-07-13T03:48:37;97216.97;;;18.90;100.00
49515;BME280;35415;47.870;16.058;2023-07-13T03:51:06;97213.91;;;18.91;100.00
49515;BME280;35415;47.870;16.058;2023-07-13T03:53:33;97208.47;;;18.91;100.00
49515;BME280;35415;47.870;16.058;2023-07-13T03:56:02;97196.44;;;18.92;100.00
49515;BME280;35415;47.870;16.058;2023-07-13T03:58:30;97198.81;;;18.94;100.00
49515;BME280;35415;47.870;16.058;2023-07-13T04:00:57;97182.81;;;18.92;100.00
49515;BME280;35415;47.870;16.058;2023-07-13T04:03:24;97181.69;;;18.93;100.00
49515;BME280;35415;47.870;16.058;2023-07-13T04:05:54;97171.56;;;18.94;100.00
49515;BME280;35415;47.870;16.058;2023-07-13T04:08:24;97166.13;;;18.94;100.00
49515;BME280;35415;47.870;16.058;2023-07-13T04:10:51;97151.38;;;18.95;100.00
49515;BME280;35415;47.870;16.058;2023-07-13T04:13:20;97137.75;;;18.95;100.00
49515;BME280;35415;47.870;16.058;2023-07-13T04:15:46;97120.59;;;18.94;100.00
49515;BME280;35415;47.870;16.058;2023-07-13T04:18:13;97115.94;;;18.95;100.00
49515;BME280;35415;47.870;16.058;2023-07-13T04:20:40;97106.50;;;18.92;100.00
49515;BME280;35415;47.870;16.058;2023-07-13T04:23:06;97094.00;;;18.91;100.00
49515;BME280;35415;47.870;16.058;2023-07-13T04:25:33;97086.47;;;18.88;100.00
49515;BME280;35415;47.870;16.058;2023-07-13T04:28:00;97073.66;;;18.89;100.00
49515;BME280;35415;47.870;16.058;2023-07-13T04:30:28;97075.91;;;18.87;100.00
49515;BME280;35415;47.870;16.058;2023-07-13T04:32:56;97075.44;;;18.85;100.00
49515;BME280;35415;47.870;16.058;2023-07-13T04:35:23;97077.69;;;18.83;100.00
49515;BME280;35415;47.870;16.058;2023-07-13T04:37:50;97075.56;;;18.80;100.00
49515;BME280;35415;47.870;16.058;2023-07-13T04:40:17;97073.97;;;18.79;100.00
49515;BME280;35415;47.870;16.058;2023-07-13T04:42:44;97068.53;;;18.79;100.00
49515;BME280;35415;47.870;16.058;2023-07-13T04:45:11;97064.22;;;18.78;100.00
49515;BME280;35415;47.870;16.058;2023-07-13T04:47:39;97053.31;;;18.78;100.00
49515;BME280;35415;47.870;16.058;2023-07-13T04:50:06;97042.41;;;18.78;100.00
49515;BME280;35415;47.870;16.058;2023-07-13T04:52:33;97031.50;;;18.78;100.00
49515;BME280;35415;47.870;16.058;2023-07-13T04:55:00;97022.53;;;18.77;100.00
49515;BME280;35415;47.870;16.058;2023-07-13T04:57:27;97016.75;;;18.79;100.00
49515;BME280;35415;47.870;16.058;2023-07-13T04:59:54;97031.69;;;18.81;100.00
49515;BME280;35415;47.870;16.058;2023-07-13T05:02:21;97052.34;;;18.82;100.00
49515;BME280;35415;47.870;16.058;2023-07-13T05:04:50;97077.34;;;18.84;100.00
49515;BME280;35415;47.870;16.058;2023-07-13T05:07:16;97097.22;;;18.85;100.00
49515;BME280;35415;47.870;16.058;2023-07-13T05:09:43;97108.13;;;18.85;100.00
49515;BME280;35415;47.870;16.058;2023-07-13T05:12:10;97115.66;;;18.88;100.00
49515;BME280;35415;47.870;16.058;2023-07-13T05:14:37;97114.53;;;18.89;100.00
49515;BME280;35415;47.870;16.058;2023-07-13T05:17:04;97128.28;;;18.92;100.00
49515;BME280;35415;47.870;16.058;2023-07-13T05:19:30;97140.78;;;18.93;100.00
49515;BME280;35415;47.870;16.058;2023-07-13T05:21:58;97148.31;;;18.97;100.00
49515;BME280;35415;47.870;16.058;2023-07-13T05:24:25;97160.19;;;19.01;100.00
49515;BME280;35415;47.870;16.058;2023-07-13T05:26:52;97173.16;;;19.04;100.00
49515;BME280;35415;47.870;16.058;2023-07-13T05:29:19;97176.38;;;19.06;100.00
49515;BME280;35415;47.870;16.058;2023-07-13T05:31:46;97182.28;;;19.08;100.00
49515;BME280;35415;47.870;16.058;2023-07-13T05:34:12;97180.84;;;19.10;100.00
49515;BME280;35415;47.870;16.058;2023-07-13T05:36:39;97175.84;;;19.12;100.00
49515;BME280;35415;47.870;16.058;2023-07-13T05:39:07;97179.38;;;19.13;100.00
49515;BME280;35415;47.870;16.058;2023-07-13T05:41:35;97175.53;;;19.14;100.00
49515;BME280;35415;47.870;16.058;2023-07-13T05:44:02;97180.69;;;19.15;100.00
49515;BME280;35415;47.870;16.058;2023-07-13T05:46:28;97178.75;;;19.16;100.00
49515;BME280;35415;47.870;16.058;2023-07-13T05:48:56;97190.47;;;19.16;100.00
49515;BME280;35415;47.870;16.058;2023-07-13T05:51:22;97189.34;;;19.17;100.00
49515;BME280;35415;47.870;16.058;2023-07-13T05:53:49;97190.94;;;19.18;100.00
49515;BME280;35415;47.870;16.058;2023-07-13T05:56:17;97191.75;;;19.19;100.00
49515;BME280;35415;47.870;16.058;2023-07-13T05:58:47;97191.75;;;19.19;100.00
49515;BME280;35415;47.870;16.058;2023-07-13T06:01:15;97197.19;;;19.19;100.00
49515;BME280;35415;47.870;16.058;2023-07-13T06:03:42;97200.72;;;19.19;100.00
49515;BME280;35415;47.870;16.058;2023-07-13T06:06:13;97200.41;;;19.21;100.00
49515;BME280;35415;47.870;16.058;2023-07-13T06:08:40;97207.78;;;19.20;100.00
49515;BME280;35415;47.870;16.058;2023-07-13T06:11:07;97205.03;;;19.20;100.00
49515;BME280;35415;47.870;16.058;2023-07-13T06:13:35;97213.69;;;19.22;100.00
49515;BME280;35415;47.870;16.058;2023-07-13T06:16:03;97206.31;;;19.23;100.00
49515;BME280;35415;47.870;16.058;2023-07-13T06:18:31;97209.03;;;19.23;100.00
49515;BME280;35415;47.870;16.058;2023-07-13T06:20:58;97202.94;;;19.26;100.00
49515;BME280;35415;47.870;16.058;2023-07-13T06:23:24;97208.06;;;19.28;100.00
49515;BME280;35415;47.870;16.058;2023-07-13T06:25:52;97214.78;;;19.30;100.00
49515;BME280;35415;47.870;16.058;2023-07-13T06:28:18;97211.25;;;19.30;100.00
49515;BME280;35415;47.870;16.058;2023-07-13T06:30:46;97216.09;;;19.33;100.00
49515;BME280;35415;47.870;16.058;2023-07-13T06:33:13;97214.97;;;19.34;100.00
49515;BME280;35415;47.870;16.058;2023-07-13T06:35:40;97207.25;;;19.36;100.00
49515;BME280;35415;47.870;16.058;2023-07-13T06:38:06;97202.28;;;19.38;100.00
49515;BME280;35415;47.870;16.058;2023-07-13T06:40:33;97203.53;;;19.40;100.00
49515;BME280;35415;47.870;16.058;2023-07-13T06:43:00;97191.97;;;19.43;100.00
49515;BME280;35415;47.870;16.058;2023-07-13T06:45:27;97188.25;;;19.48;100.00
49515;BME280;35415;47.870;16.058;2023-07-13T06:47:55;97195.19;;;19.54;100.00
49515;BME280;35415;47.870;16.058;2023-07-13T06:50:21;97203.97;;;19.60;100.00
49515;BME280;35415;47.870;16.058;2023-07-13T06:52:48;97199.97;;;19.66;100.00
49515;BME280;35415;47.870;16.058;2023-07-13T06:55:15;97208.44;;;19.73;100.00
49515;BME280;35415;47.870;16.058;2023-07-13T06:57:42;97212.56;;;19.79;100.00
49515;BME280;35415;47.870;16.058;2023-07-13T07:00:09;97219.47;;;19.85;100.00
49515;BME280;35415;47.870;16.058;2023-07-13T07:02:36;97229.84;;;19.92;100.00
49515;BME280;35415;47.870;16.058;2023-07-13T07:05:04;97217.94;;;19.96;100.00
49515;BME280;35415;47.870;16.058;2023-07-13T07:07:31;97224.81;;;20.02;100.00
49515;BME280;35415;47.870;16.058;2023-07-13T07:09:58;97221.09;;;20.07;100.00
49515;BME280;35415;47.870;16.058;2023-07-13T07:12:25;97219.78;;;20.13;100.00
49515;BME280;35415;47.870;16.058;2023-07-13T07:14:51;97213.00;;;20.19;100.00
49515;BME280;35415;47.870;16.058;2023-07-13T07:17:18;97214.06;;;20.27;100.00
49515;BME280;35415;47.870;16.058;2023-07-13T07:19:45;97223.69;;;20.33;100.00
49515;BME280;35415;47.870;16.058;2023-07-13T07:22:13;97213.81;;;20.40;100.00
49515;BME280;35415;47.870;16.058;2023-07-13T07:24:39;97208.34;;;20.49;100.00
49515;BME280;35415;47.870;16.058;2023-07-13T07:27:06;97211.00;;;20.58;100.00
49515;BME280;35415;47.870;16.058;2023-07-13T07:29:33;97209.31;;;20.65;100.00
49515;BME280;35415;47.870;16.058;2023-07-13T07:31:59;97208.44;;;20.73;100.00
49515;BME280;35415;47.870;16.058;2023-07-13T07:34:27;97199.38;;;20.82;100.00
49515;BME280;35415;47.870;16.058;2023-07-13T07:36:53;97209.09;;;20.91;100.00
49515;BME280;35415;47.870;16.058;2023-07-13T07:39:21;97203.56;;;21.00;100.00
49515;BME280;35415;47.870;16.058;2023-07-13T07:41:48;97205.06;;;21.10;100.00
49515;BME280;35415;47.870;16.058;2023-07-13T07:44:15;97206.59;;;21.19;100.00
49515;BME280;35415;47.870;16.058;2023-07-13T07:46:42;97212.78;;;21.28;100.00
49515;BME280;35415;47.870;16.058;2023-07-13T07:49:08;97200.94;;;21.37;100.00
49515;BME280;35415;47.870;16.058;2023-07-13T07:51:35;97207.13;;;21.46;100.00
49515;BME280;35415;47.870;16.058;2023-07-13T07:54:02;97198.94;;;21.58;100.00
49515;BME280;35415;47.870;16.058;2023-07-13T07:56:31;97199.28;;;21.69;100.00
49515;BME280;35415;47.870;16.058;2023-07-13T07:58:57;97195.28;;;21.78;100.00
49515;BME280;35415;47.870;16.058;2023-07-13T08:01:24;97209.34;;;21.89;100.00
49515;BME280;35415;47.870;16.058;2023-07-13T08:03:51;97202.59;;;21.99;100.00
49515;BME280;35415;47.870;16.058;2023-07-13T08:06:17;97214.72;;;22.10;100.00
49515;BME280;35415;47.870;16.058;2023-07-13T08:08:47;97227.63;;;22.21;100.00
49515;BME280;35415;47.870;16.058;2023-07-13T08:11:15;97224.03;;;22.33;100.00
49515;BME280;35415;47.870;16.058;2023-07-13T08:13:44;97206.69;;;22.41;100.00
49515;BME280;35415;47.870;16.058;2023-07-13T08:16:14;97211.72;;;22.51;100.00
49515;BME280;35415;47.870;16.058;2023-07-13T08:18:41;97209.25;;;22.62;100.00
49515;BME280;35415;47.870;16.058;2023-07-13T08:21:08;97210.28;;;22.70;100.00
49515;BME280;35415;47.870;16.058;2023-07-13T08:23:35;97213.66;;;22.79;100.00
49515;BME280;35415;47.870;16.058;2023-07-13T08:26:02;97217.47;;;22.87;99.28
49515;BME280;35415;47.870;16.058;2023-07-13T08:28:29;97215.34;;;22.96;96.42
49515;BME280;35415;47.870;16.058;2023-07-13T08:31:01;97216.00;;;23.05;97.38
49515;BME280;35415;47.870;16.058;2023-07-13T08:33:28;97215.03;;;23.13;97.17
49515;BME280;35415;47.870;16.058;2023-07-13T08:35:54;97207.47;;;23.22;96.70
49515;BME280;35415;47.870;16.058;2023-07-13T08:38:22;97212.41;;;23.32;95.12
49515;BME280;35415;47.870;16.058;2023-07-13T08:40:50;97220.16;;;23.42;95.17
49515;BME280;35415;47.870;16.058;2023-07-13T08:43:19;97225.13;;;23.53;94.14
49515;BME280;35415;47.870;16.058;2023-07-13T08:45:48;97223.03;;;23.62;93.33
49515;BME280;35415;47.870;16.058;2023-07-13T08:48:18;97221.72;;;23.72;92.75
49515;BME280;35415;47.870;16.058;2023-07-13T08:50:47;97231.38;;;23.81;93.00
49515;BME280;35415;47.870;16.058;2023-07-13T08:53:16;97227.31;;;23.91;90.55
49515;BME280;35415;47.870;16.058;2023-07-13T08:55:43;97246.34;;;23.99;90.14
49515;BME280;35415;47.870;16.058;2023-07-13T08:58:11;97224.53;;;24.07;89.11
49515;BME280;35415;47.870;16.058;2023-07-13T09:00:40;97241.19;;;24.14;88.65
49515;BME280;35415;47.870;16.058;2023-07-13T09:03:12;97248.34;;;24.18;89.92
49515;BME280;35415;47.870;16.058;2023-07-13T09:05:48;97251.22;;;24.22;87.42
49515;BME280;35415;47.870;16.058;2023-07-13T09:08:22;97273.72;;;24.27;89.55
49515;BME280;35415;47.870;16.058;2023-07-13T09:10:53;97253.53;;;24.36;86.81
49515;BME280;35415;47.870;16.058;2023-07-13T09:13:26;97253.25;;;24.41;86.06
49515;BME280;35415;47.870;16.058;2023-07-13T09:15:57;97253.75;;;24.46;83.77
49515;BME280;35415;47.870;16.058;2023-07-13T09:18:26;97236.19;;;24.51;83.69
49515;BME280;35415;47.870;16.058;2023-07-13T09:20:56;97235.91;;;24.56;83.45
49515;BME280;35415;47.870;16.058;2023-07-13T09:23:24;97246.25;;;24.63;84.19
49515;BME280;35415;47.870;16.058;2023-07-13T09:25:51;97249.53;;;24.68;82.11
49515;BME280;35415;47.870;16.058;2023-07-13T09:28:22;97269.03;;;24.79;81.61
49515;BME280;35415;47.870;16.058;2023-07-13T09:30:51;97263.69;;;24.86;82.37
49515;BME280;35415;47.870;16.058;2023-07-13T09:33:19;97253.19;;;24.92;82.31
49515;BME280;35415;47.870;16.058;2023-07-13T09:35:46;97247.81;;;24.99;82.43
49515;BME280;35415;47.870;16.058;2023-07-13T09:38:14;97243.28;;;25.06;79.89
49515;BME280;35415;47.870;16.058;2023-07-13T09:40:48;97244.59;;;25.12;81.06
49515;BME280;35415;47.870;16.058;2023-07-13T09:43:19;97250.69;;;25.22;77.33
49515;BME280;35415;47.870;16.058;2023-07-13T09:45:47;97254.72;;;25.28;76.92
49515;BME280;35415;47.870;16.058;2023-07-13T09:48:14;97246.59;;;25.35;77.57
49515;BME280;35415;47.870;16.058;2023-07-13T09:50:41;97251.03;;;25.39;75.52
49515;BME280;35415;47.870;16.058;2023-07-13T09:53:14;97252.38;;;25.49;74.32
49515;BME280;35415;47.870;16.058;2023-07-13T09:55:42;97250.13;;;25.55;75.04
49515;BME280;35415;47.870;16.058;2023-07-13T09:58:10;97242.72;;;25.59;76.49
49515;BME280;35415;47.870;16.058;2023-07-13T10:00:38;97241.25;;;25.65;73.83
49515;BME280;35415;47.870;16.058;2023-07-13T10:03:09;97248.53;;;25.73;73.30
49515;BME280;35415;47.870;16.058;2023-07-13T10:05:41;97258.06;;;25.79;72.44
49515;BME280;35415;47.870;16.058;2023-07-13T10:08:20;97248.31;;;25.85;71.91
49515;BME280;35415;47.870;16.058;2023-07-13T10:10:52;97251.22;;;25.92;72.13
49515;BME280;35415;47.870;16.058;2023-07-13T10:13:24;97246.59;;;26.00;71.94
49515;BME280;35415;47.870;16.058;2023-07-13T10:15:52;97234.97;;;26.10;69.52
49515;BME280;35415;47.870;16.058;2023-07-13T10:18:19;97246.50;;;26.19;67.63
49515;BME280;35415;47.870;16.058;2023-07-13T10:20:47;97254.91;;;26.26;68.40
49515;BME280;35415;47.870;16.058;2023-07-13T10:23:15;97253.00;;;26.30;66.15
49515;BME280;35415;47.870;16.058;2023-07-13T10:25:49;97258.22;;;26.35;65.58
49515;BME280;35415;47.870;16.058;2023-07-13T10:28:20;97257.94;;;26.41;67.15
49515;BME280;35415;47.870;16.058;2023-07-13T10:30:48;97252.47;;;26.44;65.51
49515;BME280;35415;47.870;16.058;2023-07-13T10:33:16;97251.34;;;26.49;64.00
49515;BME280;35415;47.870;16.058;2023-07-13T10:35:43;97251.00;;;26.54;62.22
49515;BME280;35415;47.870;16.058;2023-07-13T10:38:11;97258.59;;;26.60;60.74
49515;BME280;35415;47.870;16.058;2023-07-13T10:40:40;97262.63;;;26.66;59.04
49515;BME280;35415;47.870;16.058;2023-07-13T10:43:12;97257.59;;;26.72;57.06
49515;BME280;35415;47.870;16.058;2023-07-13T10:45:41;97255.69;;;26.76;55.99
49515;BME280;35415;47.870;16.058;2023-07-13T10:48:09;97260.81;;;26.78;56.47
49515;BME280;35415;47.870;16.058;2023-07-13T10:50:40;97255.72;;;26.80;54.54
49515;BME280;35415;47.870;16.058;2023-07-13T10:53:17;97257.72;;;26.83;55.25
49515;BME280;35415;47.870;16.058;2023-07-13T10:55:54;97246.72;;;26.86;55.52
49515;BME280;35415;47.870;16.058;2023-07-13T10:58:28;97257.47;;;26.91;56.26
49515;BME280;35415;47.870;16.058;2023-07-13T11:01:07;97262.25;;;26.98;55.76
49515;BME280;35415;47.870;16.058;2023-07-13T11:03:37;97262.41;;;27.05;54.43
49515;BME280;35415;47.870;16.058;2023-07-13T11:06:05;97250.63;;;27.12;55.63
49515;BME280;35415;47.870;16.058;2023-07-13T11:08:35;97251.88;;;27.18;56.18
49515;BME280;35415;47.870;16.058;2023-07-13T11:11:04;97268.94;;;27.23;55.95
49515;BME280;35415;47.870;16.058;2023-07-13T11:13:59;97247.31;;;27.33;55.06
49515;BME280;35415;47.870;16.058;2023-07-13T11:19:24;97257.31;;;27.44;53.63
49515;BME280;35415;47.870;16.058;2023-07-13T11:22:02;97277.50;;;27.48;52.79
49515;BME280;35415;47.870;16.058;2023-07-13T11:24:30;97270.81;;;27.53;51.39
49515;BME280;35415;47.870;16.058;2023-07-13T11:27:26;97261.34;;;27.54;52.28
49515;BME280;35415;47.870;16.058;2023-07-13T11:30:07;97273.69;;;27.60;52.25
49515;BME280;35415;47.870;16.058;2023-07-13T11:32:35;97268.63;;;27.66;51.98
49515;BME280;35415;47.870;16.058;2023-07-13T11:35:02;97261.59;;;27.72;50.12
49515;BME280;35415;47.870;16.058;2023-07-13T11:37:28;97245.88;;;27.79;50.24
49515;BME280;35415;47.870;16.058;2023-07-13T11:39:57;97265.28;;;27.86;48.61
49515;BME280;35415;47.870;16.058;2023-07-13T11:42:24;97259.81;;;27.94;47.42
49515;BME280;35415;47.870;16.058;2023-07-13T11:44:52;97253.94;;;27.99;47.79
49515;BME280;35415;47.870;16.058;2023-07-13T11:47:21;97261.47;;;28.02;47.71
49515;BME280;35415;47.870;16.058;2023-07-13T11:49:49;97263.47;;;28.05;47.64
49515;BME280;35415;47.870;16.058;2023-07-13T11:52:18;97267.06;;;28.09;47.53
49515;BME280;35415;47.870;16.058;2023-07-13T11:54:47;97264.31;;;28.12;46.27
49515;BME280;35415;47.870;16.058;2023-07-13T11:57:19;97261.59;;;28.16;47.53
49515;BME280;35415;47.870;16.058;2023-07-13T11:59:50;97252.50;;;28.19;47.33
49515;BME280;35415;47.870;16.058;2023-07-13T12:02:18;97256.47;;;28.22;48.17
49515;BME280;35415;47.870;16.058;2023-07-13T12:04:53;97249.41;;;28.24;48.28
49515;BME280;35415;47.870;16.058;2023-07-13T12:07:20;97253.81;;;28.29;47.10
49515;BME280;35415;47.870;16.058;2023-07-13T12:09:48;97258.19;;;28.33;45.98
49515;BME280;35415;47.870;16.058;2023-07-13T12:12:17;97255.81;;;28.35;44.39
49515;BME280;35415;47.870;16.058;2023-07-13T12:14:45;97253.84;;;28.36;45.86
49515;BME280;35415;47.870;16.058;2023-07-13T12:17:15;97261.41;;;28.39;44.96
49515;BME280;35415;47.870;16.058;2023-07-13T12:19:44;97263.41;;;28.42;45.79
49515;BME280;35415;47.870;16.058;2023-07-13T12:22:13;97261.03;;;28.44;46.12
49515;BME280;35415;47.870;16.058;2023-07-13T12:24:40;97259.09;;;28.48;45.05
49515;BME280;35415;47.870;16.058;2023-07-13T12:27:13;97264.63;;;28.52;43.89
49515;BME280;35415;47.870;16.058;2023-07-13T12:29:48;97265.09;;;28.57;45.63
49515;BME280;35415;47.870;16.058;2023-07-13T12:32:16;97256.41;;;28.62;45.49
49515;BME280;35415;47.870;16.058;2023-07-13T12:34:51;97245.00;;;28.71;44.83
49515;BME280;35415;47.870;16.058;2023-07-13T12:37:19;97247.03;;;28.77;45.24
49515;BME280;35415;47.870;16.058;2023-07-13T12:39:47;97238.34;;;28.83;45.31
49515;BME280;35415;47.870;16.058;2023-07-13T12:42:18;97243.53;;;28.88;45.54
49515;BME280;35415;47.870;16.058;2023-07-13T12:44:49;97246.34;;;28.95;45.51
49515;BME280;35415;47.870;16.058;2023-07-13T12:47:17;97246.38;;;29.02;44.68
49515;BME280;35415;47.870;16.058;2023-07-13T12:49:48;97255.09;;;29.08;43.66
49515;BME280;35415;47.870;16.058;2023-07-13T12:52:18;97253.53;;;29.10;43.32